Weather observations for the past three days for
Cocoa Beach, Cape Canaveral Air Force Station Skid Strip
| Date | Time (edt) | Wind (kph) | Vis. (km) | Weather | Sky Cond. | Temperature (ºC) | Relative Humidity | Wind Chill (°C) | Heat Index (°C) | Pressure | Precipitation (cm) | ||||||
|---|---|---|---|---|---|---|---|---|---|---|---|---|---|---|---|---|---|
| Air | Dwpt | 6 hour | altimeter (cm) | sea level (mb) | 1 hr | 3 hr | 6 hr | ||||||||||
| Max. | Min. | ||||||||||||||||
| 02 | 12:55 | W 28 | 16.09 | Partly Cloudy | FEW170 SCT200 | 31.7 | 20.3 | 51% | 34 | 75.72 | 1009.8 | ||||||
| 02 | 11:55 | SW 20 | 16.09 | Partly Cloudy | SCT190 SCT210 | 28.9 | 19.8 | 58% | 31 | 75.74 | 1010.1 | ||||||
| 02 | 10:55 | SW 13 | 16.09 | A Few Clouds | FEW180 | 27.4 | 18.4 | 58% | 28 | 75.79 | 1010.8 | ||||||
| 02 | 09:55 | SW 15 | 16.09 | Mostly Cloudy | FEW060 BKN200 | 27 | 19.3 | 63% | 28 | 75.77 | 1010.4 | ||||||
| 02 | 08:55 | SW 19 | 16.09 | Fair | CLR | 25.5 | 20.9 | 76% | 27 | 75.74 | 1010.1 | ||||||
| 02 | 07:55 | SW 13 | 16.09 | Fair | CLR | 23.6 | 20.9 | 25 | 22 | 85% | 75.69 | 1009.4 | |||||
| 02 | 06:55 | SW 9 | 16.09 | Fair | CLR | 22.1 | 20 | 88% | 75.67 | 1009.1 | |||||||
| 02 | 05:55 | W 9 | 16.09 | Fair | CLR | 22.8 | 20.1 | 85% | 75.67 | 1009.1 | |||||||
| 02 | 04:55 | W 15 | 16.09 | A Few Clouds | FEW190 | 23.6 | 20.1 | 81% | 75.69 | 1009.4 | |||||||
| 02 | 03:55 | W 15 | 16.09 | Partly Cloudy | SCT200 | 23.8 | 19.9 | 79% | 75.67 | 1009.1 | |||||||
| 02 | 02:55 | W 19 | 16.09 | A Few Clouds | FEW200 | 24.5 | 20.2 | 77% | 25 | 75.64 | 1008.8 | ||||||
| 02 | 01:55 | W 17 | 16.09 | A Few Clouds | FEW200 | 25 | 21.5 | 26.1 | 24.4 | 81% | 26 | 75.67 | 1009.1 | ||||
| 02 | 00:55 | S 9 | 16.09 | Fair | CLR | 24.7 | 21.6 | 83% | 25 | 75.67 | 1009.1 | ||||||
| 01 | 23:55 | S 19 | 16.09 | Fair | CLR | 26 | 23.1 | 84% | 28 | 75.69 | 1009.4 | ||||||
| 01 | 22:55 | SE 13 | 16.09 | Fair | CLR | 25.7 | 23 | 85% | 27 | 75.72 | 1009.8 | ||||||
| 01 | 21:55 | SE 13 | 16.09 | Fair | CLR | 25.4 | 22.5 | 84% | 27 | 75.72 | 1009.8 | ||||||
| 01 | 20:55 | E 13 | 16.09 | Fair | CLR | 25.3 | 21.8 | 81% | 26 | 75.69 | 1009.4 | ||||||
| 01 | 19:55 | SE 15 | 16.09 | Fair | CLR | 25.9 | 21.5 | 31.3 | 25.9 | 77% | 27 | 75.64 | 1008.8 | ||||
| 01 | 18:55 | SE 24 | 16.09 | Fair | CLR | 27.4 | 20.2 | 65% | 29 | 75.62 | 1008.4 | ||||||
| 01 | 17:55 | SE 22 | 16.09 | A Few Clouds | FEW220 | 27.6 | 19.9 | 63% | 29 | 75.59 | 1008.1 | ||||||
| 01 | 16:55 | SE 22 | 16.09 | A Few Clouds | FEW200 | 30.2 | 20.4 | 56% | 32 | 75.62 | 1008.4 | ||||||
| 01 | 15:55 | SE 20 | 16.09 | Mostly Cloudy | BKN200 | 29.1 | 18.5 | 53% | 30 | 75.67 | 1009.1 | ||||||
| 01 | 14:55 | SE 17 | 16.09 | Fair | CLR | 30.8 | 19.5 | 51% | 32 | 75.72 | 1009.8 | ||||||
| 01 | 13:55 | SE 13 | 16.09 | A Few Clouds | FEW049 FEW190 | 30.5 | 20.1 | 31 | 24.2 | 54% | 33 | 75.77 | 1010.4 | ||||
| 01 | 12:55 | SE 15 | 16.09 | A Few Clouds | FEW046 FEW180 | 30.3 | 20.8 | 57% | 33 | 75.79 | 1010.8 | ||||||
| 01 | 11:55 | W 7 | 16.09 | Fair | CLR | 29.5 | 18.6 | 52% | 31 | 75.82 | 1011.1 | ||||||
| 01 | 10:55 | W 9 | 16.09 | Fair | CLR | 28.7 | 20.1 | 60% | 30 | 75.84 | 1011.5 | ||||||
| 01 | 09:55 | NW 11 | 16.09 | Fair | CLR | 27.1 | 20.7 | 68% | 29 | 75.82 | 1011.1 | ||||||
| 01 | 08:55 | W 15 | 16.09 | Fair | CLR | 25.8 | 21.4 | 77% | 27 | 75.82 | 1011.1 | ||||||
| 01 | 07:55 | W 13 | 16.09 | A Few Clouds | FEW210 | 24.3 | 21.4 | 24.9 | 22.8 | 84% | 25 | 75.77 | 1010.4 | ||||
| 01 | 06:55 | W 17 | 16.09 | A Few Clouds | FEW150 FEW170 | 23.4 | 21.1 | 87% | 75.77 | 1010.4 | |||||||
| 01 | 05:55 | W 11 | 16.09 | A Few Clouds | FEW190 | 22.9 | 20.4 | 86% | 75.74 | 1010.1 | |||||||
| 01 | 04:55 | W 11 | 16.09 | Fair | CLR | 22.9 | 19.8 | 83% | 75.72 | 1009.8 | |||||||
| 01 | 03:55 | W 11 | 16.09 | Fair | CLR | 23 | 19.1 | 79% | 75.69 | 1009.4 | |||||||
| 01 | 02:55 | W 11 | 16.09 | Fair | CLR | 24.3 | 19.3 | 74% | 25 | 75.69 | 1009.4 | ||||||
| 01 | 01:55 | W 13 | 16.09 | Fair | CLR | 24.8 | 18.9 | 29.5 | 24.7 | 70% | 26 | 75.72 | 1009.8 | ||||
| 01 | 00:55 | NW 15 | 16.09 | Fair | CLR | 25.3 | 18.5 | 66% | 26 | 75.74 | 1010.1 | ||||||
| 30 | 23:55 | W 15 | 16.09 | Fair | CLR | 25.9 | 18 | 62% | 27 | 75.77 | 1010.4 | ||||||
| 30 | 22:55 | W 13 | 16.09 | Fair | CLR | 26.3 | 17.6 | 59% | 27 | 75.74 | 1010.1 | ||||||
| 30 | 21:55 | W 11 | 16.09 | Mostly Cloudy | BKN160 | 27.6 | 17.1 | 53% | 28 | 75.72 | 1009.8 | ||||||
| 30 | 20:55 | S 15 | 11.27 | A Few Clouds | FEW170 | 26.8 | 20.4 | 68% | 28 | 75.67 | 1009.1 | ||||||
| 30 | 19:55 | W 13 | 16.09 | Fair | CLR | 29.6 | 16 | 33.2 | 28.5 | 44% | 30 | 75.59 | 1008.1 | ||||
| 30 | 18:55 | W 20 | 16.09 | A Few Clouds | FEW070 | 31.1 | 15.1 | 38% | 31 | 75.57 | 1007.7 | ||||||
| 30 | 17:55 | E 13 | 16.09 | Partly Cloudy | FEW065 SCT080 | 28.8 | 21.3 | 64% | 31 | 75.57 | 1007.7 | ||||||
| 30 | 16:55 | E 24 | 16.09 | Partly Cloudy | SCT060 | 29.7 | 21.1 | 60% | 32 | 75.59 | 1008.1 | ||||||
| 30 | 15:55 | W 20 | 16.09 | Fair | CLR | 32.7 | 15.6 | 36% | 33 | 75.62 | 1008.4 | ||||||
| 30 | 14:55 | W 26 | 16.09 | Fair | CLR | 32.7 | 15.2 | 35% | 32 | 75.69 | 1009.4 | ||||||
| 30 | 13:55 | W 15 | 16.09 | Partly Cloudy | FEW150 SCT180 SCT210 | 31.1 | 17.7 | 31.4 | 23.6 | 45% | 32 | 75.74 | 1010.1 | ||||
| 30 | 12:55 | SW 13 | 16.09 | Fair | CLR | 30.1 | 18.5 | 50% | 31 | 75.77 | 1010.4 | ||||||
| 30 | 11:55 | W 13 | 16.09 | Fair | CLR | 26.9 | 19.2 | 63% | 28 | 75.82 | 1011.1 | ||||||
| 30 | 10:55 | NW 9 | 16.09 | Partly Cloudy | SCT160 | 25.6 | 19.9 | 71% | 27 | 75.82 | 1011.1 | ||||||
| 30 | 09:55 | W 17 | 16.09 | A Few Clouds | FEW180 | 25.7 | 20.5 | 73% | 27 | 75.84 | 1011.5 | ||||||
| 30 | 08:55 | W 17 | 16.09 | A Few Clouds | FEW180 | 24.1 | 20.8 | 82% | 24 | 75.87 | 1011.8 | ||||||
| 30 | 07:55 | W 17 | 16.09 | Fair | CLR | 23.5 | 20.6 | 23.6 | 20.9 | 84% | 75.79 | 1010.8 | |||||
| 30 | 06:55 | SW 7 | 16.09 | Fair | CLR | 22.3 | 19.6 | 85% | 75.72 | 1009.8 | |||||||
| 30 | 05:55 | W 9 | 16.09 | A Few Clouds | FEW170 | 21.9 | 19.2 | 85% | 75.77 | 1010.4 | |||||||
| 30 | 04:55 | Calm | 16.09 | A Few Clouds | FEW190 | 20.9 | 18.5 | 86% | 75.72 | 1009.8 | |||||||
| 30 | 03:55 | NW 7 | 16.09 | Fair | CLR | 22 | 19 | 83% | 75.77 | 1010.4 | |||||||
| 30 | 02:55 | W 7 | 16.09 | Fair | CLR | 22.5 | 19.2 | 82% | 75.77 | 1010.4 | |||||||
| 30 | 01:55 | W 7 | 16.09 | Fair | CLR | 23.2 | 19.7 | 25.9 | 23.2 | 81% | 75.84 | 1011.5 | |||||
| 30 | 00:55 | W 11 | 16.09 | Fair | CLR | 24.8 | 19.8 | 74% | 26 | 75.92 | 1012.5 | ||||||
| 29 | 23:55 | S 15 | 16.09 | Fair | CLR | 25.3 | 21.2 | 78% | 26 | 75.9 | 1012.1 | ||||||
| 29 | 22:55 | S 20 | 16.09 | Fair | CLR | 25.3 | 20.1 | 73% | 26 | 75.87 | 1011.8 | ||||||
| 29 | 21:55 | S 20 | 16.09 | Fair | CLR | 25.5 | 19.6 | 70% | 27 | 75.9 | 1012.1 | ||||||
| 29 | 20:55 | S 19 | 16.09 | Fair | CLR | 25.7 | 18.8 | 66% | 27 | 75.82 | 1011.1 | ||||||
| 29 | 19:55 | S 22 | 16.09 | Fair | CLR | 25.9 | 19 | 30 | 25.9 | 66% | 27 | 75.77 | 1010.4 | ||||
| 29 | 18:55 | SE 22 | 16.09 | Fair | CLR | 27 | 18 | 58% | 28 | 75.77 | 1010.4 | ||||||
| 29 | 17:55 | SE 24 | 16.09 | Fair | CLR | 28.5 | 18.3 | 54% | 29 | 75.79 | 1010.8 | ||||||
| 29 | 16:55 | SE 22 | 16.09 | Fair | CLR | 29 | 15.5 | 44% | 29 | 75.82 | 1011.1 | ||||||
| 29 | 15:55 | SE 19 | 16.09 | A Few Clouds | FEW180 FEW210 | 29.3 | 16.8 | 47% | 30 | 75.92 | 1012.5 | ||||||
| 29 | 14:55 | S 15 | 16.09 | A Few Clouds | FEW200 | 28.8 | 17 | 49% | 29 | 76.02 | 1013.8 | ||||||
| 29 | 13:55 | S 17 | 16.09 | Partly Cloudy | SCT190 | 29.9 | 17.7 | 29.9 | 22.5 | 48% | 31 | 76.07 | 1014.5 | ||||
| Date | Time (edt) | Wind (kph) | Vis. (km) | Weather | Sky Cond. | Air | Dwpt | Max. | Min. | Relative Humidity | Wind Chill (°C) | Heat Index (°C) | altimeter (cm) | sea level (mb) | 1 hr | 3 hr | 6 hr |
| 6 hour | |||||||||||||||||
| Temperature (ºC) | Pressure | Precipitation (cm) | |||||||||||||||